Time;durP1;ratioP1;P1;durP2;ratioP2;P2;SDS_P1;SDS_P2;PMS_P1;PMS_P2;Temp;Humidity;BMP_temperature;BMP_pressure;BME280_temperature;BME280_humidity;BME280_pressure;Samples;Min_cycle;Max_cycle;Signal;HPM_P1;HPM_P2
2022/03/03 00:00:15;;;;;;;27.65;10.35;;;;;;;;;;4979916;28;20491;-52
2022/03/03 00:02:42;;;;;;;29.40;10.40;;;;;;;;;;4979024;28;20057;-54
2022/03/03 00:05:08;;;;;;;41.08;11.77;;;;;;;;;;4979445;28;20117;-55
2022/03/03 00:07:34;;;;;;;28.55;9.98;;;;;;;;;;4980332;28;20058;-56
2022/03/03 00:10:01;;;;;;;29.30;8.93;;;;;;;;;;4981635;28;20505;-55
2022/03/03 00:12:27;;;;;;;26.98;9.40;;;;;;;;;;4997290;28;20046;-53
2022/03/03 00:14:53;;;;;;;34.30;9.93;;;;;;;;;;4999630;28;20046;-55
2022/03/03 00:17:19;;;;;;;46.20;11.75;;;;;;;;;;4984971;28;20034;-56
2022/03/03 00:19:45;;;;;;;28.83;10.95;;;;;;;;;;4980097;28;20039;-53
2022/03/03 00:22:11;;;;;;;32.35;9.60;;;;;;;;;;4979277;28;20069;-54
2022/03/03 00:24:37;;;;;;;64.38;11.77;;;;;;;;;;4986153;28;20086;-53
2022/03/03 00:27:04;;;;;;;53.15;12.13;;;;;;;;;;4981184;28;20050;-55
2022/03/03 00:29:30;;;;;;;43.65;10.40;;;;;;;;;;4978174;28;20045;-55
2022/03/03 00:31:56;;;;;;;43.00;9.30;;;;;;;;;;4980390;28;20034;-54
2022/03/03 00:34:22;;;;;;;47.28;11.18;;;;;;;;;;4979730;28;20046;-56
2022/03/03 00:36:48;;;;;;;56.80;12.07;;;;;;;;;;4979893;28;20046;-55
2022/03/03 00:39:14;;;;;;;41.80;10.85;;;;;;;;;;4979752;28;20502;-54
2022/03/03 00:41:40;;;;;;;21.55;9.43;;;;;;;;;;4979469;28;20057;-56
2022/03/03 00:44:06;;;;;;;47.80;11.27;;;;;;;;;;4989712;28;20046;-55
2022/03/03 00:46:34;;;;;;;30.38;10.40;;;;;;;;;;4990051;28;20440;-57
2022/03/03 00:49:00;;;;;;;110.78;15.13;;;;;;;;;;4988957;28;20038;-52
2022/03/03 00:51:26;;;;;;;56.08;12.75;;;;;;;;;;4982523;28;20045;-52
2022/03/03 00:53:52;;;;;;;66.53;11.30;;;;;;;;;;4982033;28;20072;-53
2022/03/03 00:56:18;;;;;;;49.58;9.75;;;;;;;;;;4982190;28;20065;-52
2022/03/03 00:58:44;;;;;;;54.58;12.38;;;;;;;;;;4982613;28;20042;-56
2022/03/03 01:01:10;;;;;;;55.28;11.32;;;;;;;;;;4982520;28;20062;-54
2022/03/03 01:03:36;;;;;;;35.47;9.30;;;;;;;;;;4979643;28;20196;-53
2022/03/03 01:06:02;;;;;;;46.95;8.95;;;;;;;;;;4977053;28;20173;-54
2022/03/03 01:08:28;;;;;;;62.58;11.27;;;;;;;;;;4979426;28;20065;-55
2022/03/03 01:10:54;;;;;;;60.72;11.55;;;;;;;;;;4977660;28;20046;-55
2022/03/03 01:13:22;;;;;;;43.95;9.15;;;;;;;;;;4976664;28;20579;-55
2022/03/03 01:15:48;;;;;;;26.30;10.30;;;;;;;;;;4978437;28;20145;-54
2022/03/03 01:18:14;;;;;;;55.25;10.25;;;;;;;;;;4975597;28;20085;-53
2022/03/03 01:20:40;;;;;;;37.92;11.52;;;;;;;;;;4974275;28;20117;-52
2022/03/03 01:23:06;;;;;;;46.10;10.65;;;;;;;;;;4977166;28;20081;-56
2022/03/03 01:25:31;;;;;;;41.70;9.77;;;;;;;;;;4978316;28;20038;-54
2022/03/03 01:27:58;;;;;;;32.95;8.93;;;;;;;;;;4978349;28;20039;-55
2022/03/03 01:30:24;;;;;;;45.30;10.48;;;;;;;;;;4977822;28;20053;-55
2022/03/03 01:32:50;;;;;;;92.78;11.65;;;;;;;;;;4979087;28;20046;-53
2022/03/03 01:35:18;;;;;;;52.70;10.95;;;;;;;;;;4979752;28;20042;-55
2022/03/03 01:37:45;;;;;;;40.28;11.13;;;;;;;;;;4994128;28;20062;-56
2022/03/03 01:40:12;;;;;;;61.70;12.10;;;;;;;;;;5001056;28;20559;-54
2022/03/03 01:42:39;;;;;;;46.55;12.65;;;;;;;;;;4995336;28;20054;-56
2022/03/03 01:45:05;;;;;;;66.45;14.77;;;;;;;;;;4980010;28;20412;-52
2022/03/03 01:47:31;;;;;;;57.85;11.23;;;;;;;;;;4981364;28;21910;-55
2022/03/03 01:49:57;;;;;;;90.78;13.70;;;;;;;;;;4978504;28;20097;-53
2022/03/03 01:52:24;;;;;;;77.72;11.40;;;;;;;;;;5000777;28;20037;-53
2022/03/03 01:54:50;;;;;;;94.32;12.98;;;;;;;;;;4998415;28;20985;-55
2022/03/03 01:57:17;;;;;;;57.30;10.77;;;;;;;;;;5001311;28;20069;-54
2022/03/03 01:59:43;;;;;;;72.07;11.25;;;;;;;;;;4998710;28;20053;-54
2022/03/03 02:02:10;;;;;;;67.50;12.30;;;;;;;;;;4997060;28;20042;-56
2022/03/03 02:04:38;;;;;;;64.88;11.60;;;;;;;;;;5001447;28;20045;-52
2022/03/03 02:07:04;;;;;;;81.47;11.20;;;;;;;;;;5000985;28;20494;-55
2022/03/03 02:09:30;;;;;;;106.88;14.77;;;;;;;;;;5002274;28;20053;-55
2022/03/03 02:11:56;;;;;;;108.75;13.85;;;;;;;;;;5033883;28;20037;-55
2022/03/03 02:14:21;;;;;;;84.88;11.93;;;;;;;;;;5008089;28;20025;-55
2022/03/03 02:16:48;;;;;;;56.40;12.27;;;;;;;;;;5009810;28;20066;-56
2022/03/03 02:19:14;;;;;;;54.47;11.32;;;;;;;;;;5030901;28;20034;-51
2022/03/03 02:21:40;;;;;;;41.80;11.07;;;;;;;;;;5000689;28;20037;-53
2022/03/03 02:24:07;;;;;;;37.47;10.45;;;;;;;;;;5001716;28;20111;-54
2022/03/03 02:26:34;;;;;;;119.07;12.23;;;;;;;;;;5007738;28;20431;-53
2022/03/03 02:29:00;;;;;;;72.90;12.45;;;;;;;;;;5000805;28;20184;-56
2022/03/03 02:31:26;;;;;;;55.75;9.85;;;;;;;;;;4999115;28;20048;-56
2022/03/03 02:33:51;;;;;;;48.53;10.38;;;;;;;;;;4998853;28;20498;-54
2022/03/03 02:36:17;;;;;;;69.30;11.95;;;;;;;;;;4998400;28;20045;-55
2022/03/03 02:38:44;;;;;;;40.67;10.85;;;;;;;;;;4999871;28;20618;-51
2022/03/03 02:41:10;;;;;;;46.35;10.45;;;;;;;;;;4997464;28;20049;-54
2022/03/03 02:43:36;;;;;;;40.40;10.10;;;;;;;;;;4999161;28;20463;-54
2022/03/03 02:46:02;;;;;;;61.70;10.82;;;;;;;;;;5001907;28;20343;-52
2022/03/03 02:48:28;;;;;;;69.70;11.40;;;;;;;;;;5000828;28;20084;-53
2022/03/03 02:50:54;;;;;;;57.90;12.07;;;;;;;;;;4999083;28;20144;-54
2022/03/03 02:53:20;;;;;;;48.65;9.07;;;;;;;;;;5000393;28;20098;-55
2022/03/03 02:55:46;;;;;;;67.45;11.98;;;;;;;;;;4997792;28;20607;-53
2022/03/03 02:58:12;;;;;;;53.92;11.18;;;;;;;;;;5000736;28;20037;-53
2022/03/03 03:00:43;;;;;;;43.55;10.07;;;;;;;;;;4999783;28;20042;-54
2022/03/03 03:03:12;;;;;;;64.13;11.75;;;;;;;;;;4995337;28;20510;-52
2022/03/03 03:05:38;;;;;;;47.63;10.00;;;;;;;;;;4998904;28;21099;-51
2022/03/03 03:08:04;;;;;;;45.95;8.55;;;;;;;;;;5000042;28;20039;-55
2022/03/03 03:10:30;;;;;;;42.58;10.55;;;;;;;;;;4999868;28;20509;-52
2022/03/03 03:12:56;;;;;;;49.08;10.65;;;;;;;;;;5001232;28;20428;-55
2022/03/03 03:15:22;;;;;;;65.72;10.38;;;;;;;;;;4996323;28;20038;-52
2022/03/03 03:17:48;;;;;;;44.22;9.65;;;;;;;;;;5001463;28;20412;-53
2022/03/03 03:20:14;;;;;;;77.30;11.50;;;;;;;;;;5001210;28;20096;-54
2022/03/03 03:22:40;;;;;;;71.07;11.60;;;;;;;;;;5003771;28;20547;-55
2022/03/03 03:25:10;;;;;;;34.50;8.95;;;;;;;;;;5002895;28;20072;-51
2022/03/03 03:27:37;;;;;;;34.65;8.55;;;;;;;;;;5000113;28;20524;-52
2022/03/03 03:30:06;;;;;;;25.58;8.80;;;;;;;;;;4996340;28;20046;-55
2022/03/03 03:32:32;;;;;;;70.22;11.38;;;;;;;;;;5000156;28;21049;-55
2022/03/03 03:34:58;;;;;;;74.03;11.02;;;;;;;;;;4999416;28;20130;-53
2022/03/03 03:37:24;;;;;;;45.75;10.43;;;;;;;;;;4999254;28;20271;-54
2022/03/03 03:39:50;;;;;;;51.15;7.72;;;;;;;;;;4999759;28;20038;-55
2022/03/03 03:42:16;;;;;;;46.75;8.05;;;;;;;;;;4997964;28;21012;-53
2022/03/03 03:44:42;;;;;;;61.53;9.40;;;;;;;;;;4998462;28;20038;-55
2022/03/03 03:47:09;;;;;;;65.65;11.10;;;;;;;;;;5000302;28;20400;-52
2022/03/03 03:49:35;;;;;;;60.47;11.23;;;;;;;;;;4998704;28;20112;-54
2022/03/03 03:52:01;;;;;;;39.90;10.20;;;;;;;;;;5031995;28;20044;-55
2022/03/03 03:54:27;;;;;;;23.60;8.20;;;;;;;;;;5000538;28;20156;-53
2022/03/03 03:56:53;;;;;;;40.55;8.95;;;;;;;;;;4998163;28;20108;-53
2022/03/03 03:59:19;;;;;;;38.85;8.25;;;;;;;;;;4998250;28;20081;-53
2022/03/03 04:01:45;;;;;;;18.58;7.70;;;;;;;;;;4997202;28;20042;-55
2022/03/03 04:04:12;;;;;;;16.27;7.00;;;;;;;;;;4997315;28;20126;-55
2022/03/03 04:06:37;;;;;;;15.40;7.63;;;;;;;;;;4997655;28;20052;-55
2022/03/03 04:09:04;;;;;;;24.08;10.02;;;;;;;;;;4997920;28;20106;-54
2022/03/03 04:11:30;;;;;;;30.63;9.45;;;;;;;;;;5001577;28;20042;-52
2022/03/03 04:13:57;;;;;;;35.90;9.07;;;;;;;;;;5001444;28;20091;-55
2022/03/03 04:16:23;;;;;;;64.25;11.45;;;;;;;;;;4999148;28;20050;-54
2022/03/03 04:18:50;;;;;;;27.50;10.05;;;;;;;;;;5000224;28;20050;-55
2022/03/03 04:21:15;;;;;;;43.50;9.13;;;;;;;;;;5000596;28;20048;-55
2022/03/03 04:23:41;;;;;;;49.55;9.05;;;;;;;;;;5001204;28;20050;-55
2022/03/03 04:26:07;;;;;;;45.60;11.40;;;;;;;;;;5004068;28;20043;-55
2022/03/03 04:28:33;;;;;;;42.92;10.77;;;;;;;;;;5003319;28;20092;-55
2022/03/03 04:30:59;;;;;;;52.63;10.23;;;;;;;;;;5008588;28;20070;-56
2022/03/03 04:33:25;;;;;;;49.65;10.05;;;;;;;;;;5008051;28;20033;-54
2022/03/03 04:35:51;;;;;;;33.38;9.15;;;;;;;;;;5009156;28;20070;-56
2022/03/03 04:38:17;;;;;;;48.47;10.30;;;;;;;;;;4999759;28;20221;-55
2022/03/03 04:40:43;;;;;;;69.65;11.18;;;;;;;;;;4995570;28;20038;-56
2022/03/03 04:43:08;;;;;;;59.83;10.38;;;;;;;;;;4997851;28;20522;-54
2022/03/03 04:45:35;;;;;;;33.28;8.73;;;;;;;;;;4997171;28;20041;-52
2022/03/03 04:48:01;;;;;;;72.00;10.65;;;;;;;;;;4997665;28;20137;-54
2022/03/03 04:50:27;;;;;;;28.23;8.80;;;;;;;;;;4998352;28;20128;-52
2022/03/03 04:52:53;;;;;;;66.13;10.60;;;;;;;;;;4999394;28;20496;-56
2022/03/03 04:55:18;;;;;;;47.08;9.52;;;;;;;;;;5002042;28;20048;-53
2022/03/03 04:57:44;;;;;;;24.63;8.38;;;;;;;;;;4998263;28;20045;-56
2022/03/03 05:00:11;;;;;;;63.40;10.27;;;;;;;;;;5002258;28;20044;-55
2022/03/03 05:02:37;;;;;;;110.32;12.43;;;;;;;;;;4999803;28;20140;-52
2022/03/03 05:05:05;;;;;;;60.90;11.55;;;;;;;;;;4999712;28;20392;-53
2022/03/03 05:07:31;;;;;;;69.32;10.38;;;;;;;;;;4999922;28;20531;-56
2022/03/03 05:09:57;;;;;;;61.17;9.88;;;;;;;;;;5000350;28;20065;-55
2022/03/03 05:12:23;;;;;;;48.67;10.68;;;;;;;;;;5002720;28;20447;-53
2022/03/03 05:14:51;;;;;;;42.17;10.18;;;;;;;;;;5000296;28;20049;-56
2022/03/03 05:17:17;;;;;;;76.90;10.38;;;;;;;;;;5002530;28;20172;-52
2022/03/03 05:19:43;;;;;;;41.47;9.73;;;;;;;;;;5007410;28;20543;-55
2022/03/03 05:22:09;;;;;;;25.50;9.43;;;;;;;;;;5001735;28;20038;-53
2022/03/03 05:24:35;;;;;;;33.67;10.57;;;;;;;;;;4997781;28;20046;-52
2022/03/03 05:27:01;;;;;;;47.88;10.70;;;;;;;;;;4999148;28;20056;-55
2022/03/03 05:29:27;;;;;;;37.03;10.32;;;;;;;;;;5000167;28;20041;-56
2022/03/03 05:31:57;;;;;;;57.97;9.68;;;;;;;;;;5004139;28;20546;-56
2022/03/03 05:34:23;;;;;;;57.67;10.55;;;;;;;;;;4999741;28;20072;-55
2022/03/03 05:36:49;;;;;;;47.78;9.93;;;;;;;;;;4995542;28;20042;-55
2022/03/03 05:39:16;;;;;;;56.58;10.70;;;;;;;;;;4999320;28;21761;-56
2022/03/03 05:41:42;;;;;;;47.88;11.15;;;;;;;;;;4995623;28;20133;-56
2022/03/03 05:44:11;;;;;;;54.05;10.55;;;;;;;;;;4995837;28;20060;-54
2022/03/03 05:46:37;;;;;;;37.10;11.07;;;;;;;;;;4997190;28;20068;-56
2022/03/03 05:49:04;;;;;;;55.67;10.38;;;;;;;;;;4998980;28;20042;-57
2022/03/03 05:51:31;;;;;;;46.60;10.25;;;;;;;;;;4994804;28;20034;-54
2022/03/03 05:53:56;;;;;;;31.77;10.30;;;;;;;;;;4995360;28;20042;-57
2022/03/03 05:56:23;;;;;;;28.85;8.48;;;;;;;;;;4995478;28;20042;-57
2022/03/03 05:58:49;;;;;;;87.25;10.77;;;;;;;;;;4996095;28;20061;-58
2022/03/03 06:01:16;;;;;;;46.08;10.20;;;;;;;;;;4997696;28;20499;-57
2022/03/03 06:03:42;;;;;;;71.32;9.75;;;;;;;;;;4996740;28;20062;-55
2022/03/03 06:06:08;;;;;;;42.65;9.45;;;;;;;;;;4997321;28;20050;-58
2022/03/03 06:08:41;;;;;;;49.97;8.65;;;;;;;;;;4995744;28;20103;-57
2022/03/03 06:11:07;;;;;;;;;;;;;;;;;;4995919;28;20057;-56
2022/03/03 06:13:36;;;;;;;40.35;7.93;;;;;;;;;;5010408;28;19913;-55
2022/03/03 06:16:03;;;;;;;34.05;9.52;;;;;;;;;;5000213;28;20066;-57
2022/03/03 06:18:32;;;;;;;34.30;9.52;;;;;;;;;;5010097;28;20049;-57
2022/03/03 06:20:59;;;;;;;57.97;9.52;;;;;;;;;;5009286;28;20128;-56
2022/03/03 06:23:25;;;;;;;65.43;12.02;;;;;;;;;;4998100;28;20049;-56
2022/03/03 06:25:56;;;;;;;40.65;9.85;;;;;;;;;;4997882;28;20053;-57
2022/03/03 06:28:21;;;;;;;35.03;8.80;;;;;;;;;;4996118;28;20104;-57
2022/03/03 06:30:47;;;;;;;49.50;9.90;;;;;;;;;;4995948;28;20091;-55
2022/03/03 06:33:13;;;;;;;73.95;10.98;;;;;;;;;;4998727;28;20388;-55
2022/03/03 06:35:39;;;;;;;37.72;10.20;;;;;;;;;;4997223;28;20046;-56
2022/03/03 06:38:06;;;;;;;38.88;9.45;;;;;;;;;;4998768;28;20396;-55
2022/03/03 06:40:33;;;;;;;40.25;9.63;;;;;;;;;;5003519;28;20046;-56
2022/03/03 06:43:02;;;;;;;51.03;9.75;;;;;;;;;;4996565;28;20042;-54
2022/03/03 06:45:28;;;;;;;44.45;9.32;;;;;;;;;;4996371;28;20068;-56
2022/03/03 06:47:55;;;;;;;78.05;10.15;;;;;;;;;;4996084;28;20121;-55
2022/03/03 06:50:21;;;;;;;58.38;8.60;;;;;;;;;;5000322;28;20076;-56
2022/03/03 06:52:48;;;;;;;32.65;8.07;;;;;;;;;;5001949;28;20117;-56
2022/03/03 06:55:18;;;;;;;41.28;9.98;;;;;;;;;;5000549;28;20973;-57
2022/03/03 06:57:46;;;;;;;40.15;8.60;;;;;;;;;;5000501;28;20476;-55
2022/03/03 07:00:12;;;;;;;22.48;8.48;;;;;;;;;;4999620;28;20038;-56
2022/03/03 07:02:38;;;;;;;29.30;7.72;;;;;;;;;;4995764;28;20046;-55
2022/03/03 07:05:04;;;;;;;52.72;9.65;;;;;;;;;;5000020;28;20045;-56
2022/03/03 07:07:32;;;;;;;43.53;9.95;;;;;;;;;;4999756;28;20030;-54
2022/03/03 07:09:59;;;;;;;33.17;9.38;;;;;;;;;;4997809;28;20060;-55
2022/03/03 07:12:27;;;;;;;26.40;8.93;;;;;;;;;;4998573;28;20038;-54
2022/03/03 07:14:53;;;;;;;24.17;8.82;;;;;;;;;;4999297;28;20033;-52
2022/03/03 07:17:37;;;;;;;60.20;8.98;;;;;;;;;;4999011;28;20388;-55
2022/03/03 07:20:05;;;;;;;63.53;8.57;;;;;;;;;;5000274;28;20041;-56
2022/03/03 07:22:35;;;;;;;54.63;8.85;;;;;;;;;;5001864;28;20071;-55
2022/03/03 07:25:09;;;;;;;30.88;8.82;;;;;;;;;;4999659;28;20046;-55
2022/03/03 07:27:39;;;;;;;54.58;10.30;;;;;;;;;;5002571;28;20092;-56
2022/03/03 07:30:10;;;;;;;29.05;8.27;;;;;;;;;;5001164;28;20057;-56
2022/03/03 07:32:36;;;;;;;44.83;10.40;;;;;;;;;;5003303;28;20084;-55
2022/03/03 07:35:10;;;;;;;40.55;8.60;;;;;;;;;;4999780;28;20038;-56
2022/03/03 07:37:40;;;;;;;27.02;9.07;;;;;;;;;;5001375;28;20045;-53
2022/03/03 07:40:09;;;;;;;68.60;10.80;;;;;;;;;;4997302;28;20180;-53
2022/03/03 07:42:36;;;;;;;71.68;11.15;;;;;;;;;;4997734;28;20053;-54
2022/03/03 07:45:03;;;;;;;42.78;9.80;;;;;;;;;;4999383;28;20041;-53
2022/03/03 07:47:29;;;;;;;30.70;8.85;;;;;;;;;;4997915;28;20053;-54
2022/03/03 07:49:56;;;;;;;30.25;8.55;;;;;;;;;;5000828;28;20307;-55
2022/03/03 07:52:23;;;;;;;41.30;10.32;;;;;;;;;;5000974;28;20049;-55
2022/03/03 07:54:49;;;;;;;50.88;10.88;;;;;;;;;;5001479;28;20053;-54
2022/03/03 07:57:16;;;;;;;50.35;10.20;;;;;;;;;;5002130;28;20372;-55
2022/03/03 07:59:45;;;;;;;79.95;10.63;;;;;;;;;;4996779;28;20120;-55
2022/03/03 08:02:15;;;;;;;86.13;10.02;;;;;;;;;;4997080;28;20041;-53
2022/03/03 08:04:43;;;;;;;55.85;9.18;;;;;;;;;;5029757;28;20251;-53
2022/03/03 08:07:09;;;;;;;63.10;10.45;;;;;;;;;;4998841;28;20077;-52
2022/03/03 08:09:39;;;;;;;43.95;9.65;;;;;;;;;;4998343;28;20085;-53
2022/03/03 08:12:05;;;;;;;49.25;9.13;;;;;;;;;;4998542;28;20045;-53
2022/03/03 08:14:31;;;;;;;27.83;7.70;;;;;;;;;;4997258;28;20030;-54
2022/03/03 08:16:57;;;;;;;47.83;10.65;;;;;;;;;;5000144;28;20097;-53
2022/03/03 08:19:24;;;;;;;63.90;10.38;;;;;;;;;;4997694;28;20836;-56
2022/03/03 08:21:50;;;;;;;25.95;9.63;;;;;;;;;;4996067;28;21783;-52
2022/03/03 08:24:16;;;;;;;76.13;11.40;;;;;;;;;;5014195;28;20450;-52
2022/03/03 08:26:43;;;;;;;36.10;9.45;;;;;;;;;;4999559;28;20038;-54
2022/03/03 08:29:10;;;;;;;45.75;9.85;;;;;;;;;;4997769;28;20237;-54
2022/03/03 08:31:38;;;;;;;26.35;9.57;;;;;;;;;;4998894;28;20060;-53
2022/03/03 08:34:12;;;;;;;41.97;9.25;;;;;;;;;;4999691;28;20070;-55
2022/03/03 08:36:47;;;;;;;24.95;8.35;;;;;;;;;;5013585;28;20073;-52
2022/03/03 08:39:15;;;;;;;34.88;9.00;;;;;;;;;;5000780;28;20053;-54
2022/03/03 08:41:42;;;;;;;70.82;12.73;;;;;;;;;;5000991;28;20041;-53
2022/03/03 08:44:09;;;;;;;36.97;10.20;;;;;;;;;;4999077;28;20061;-53
2022/03/03 08:46:36;;;;;;;47.67;11.02;;;;;;;;;;4999516;28;20088;-55
2022/03/03 08:49:04;;;;;;;47.90;10.27;;;;;;;;;;5002445;28;20574;-55
2022/03/03 08:51:30;;;;;;;26.23;9.40;;;;;;;;;;5004850;28;20400;-56
2022/03/03 08:53:56;;;;;;;58.63;11.88;;;;;;;;;;5006756;28;20042;-54
2022/03/03 08:56:23;;;;;;;56.60;11.48;;;;;;;;;;5002642;28;20038;-53
2022/03/03 08:58:49;;;;;;;79.32;11.45;;;;;;;;;;5003013;28;20037;-53
2022/03/03 09:01:15;;;;;;;47.90;10.60;;;;;;;;;;5000773;28;20456;-54
2022/03/03 09:03:43;;;;;;;72.35;11.38;;;;;;;;;;5003024;28;20533;-55
2022/03/03 09:06:13;;;;;;;39.40;10.40;;;;;;;;;;5001276;28;20045;-54
2022/03/03 09:08:39;;;;;;;38.00;10.02;;;;;;;;;;5002464;28;20431;-54
2022/03/03 09:11:05;;;;;;;30.10;9.57;;;;;;;;;;5001283;28;20613;-55
2022/03/03 09:13:31;;;;;;;42.63;10.93;;;;;;;;;;5003129;28;20137;-54
2022/03/03 09:15:58;;;;;;;40.60;11.63;;;;;;;;;;5000421;28;20451;-52
2022/03/03 09:18:24;;;;;;;62.17;12.60;;;;;;;;;;4997825;28;20042;-55
2022/03/03 09:20:49;;;;;;;59.70;12.15;;;;;;;;;;4996665;28;20100;-55
2022/03/03 09:23:16;;;;;;;36.15;10.18;;;;;;;;;;4998674;28;20595;-55
2022/03/03 09:25:42;;;;;;;48.38;11.05;;;;;;;;;;5000128;28;20073;-55
2022/03/03 09:28:08;;;;;;;56.75;10.45;;;;;;;;;;4999198;28;20562;-53
2022/03/03 09:30:34;;;;;;;35.67;9.93;;;;;;;;;;4998889;28;20065;-53
2022/03/03 09:33:00;;;;;;;36.33;10.05;;;;;;;;;;5000628;28;20052;-51
2022/03/03 09:35:26;;;;;;;28.80;9.88;;;;;;;;;;4999211;28;20046;-52
2022/03/03 09:37:52;;;;;;;38.63;10.82;;;;;;;;;;4997375;28;20042;-54
2022/03/03 09:40:18;;;;;;;63.97;11.40;;;;;;;;;;4997587;28;20042;-53
2022/03/03 09:43:04;;;;;;;63.63;12.18;;;;;;;;;;4998143;28;20049;-51
2022/03/03 09:45:31;;;;;;;40.70;11.07;;;;;;;;;;4997805;28;20042;-53
2022/03/03 09:47:58;;;;;;;52.53;11.07;;;;;;;;;;4998826;28;20077;-53
2022/03/03 09:50:25;;;;;;;45.00;10.55;;;;;;;;;;4996989;28;21706;-55
2022/03/03 09:52:52;;;;;;;56.10;11.20;;;;;;;;;;4998908;28;20080;-52
2022/03/03 09:55:18;;;;;;;50.10;10.40;;;;;;;;;;5000695;28;20898;-53
2022/03/03 09:57:44;;;;;;;55.35;12.00;;;;;;;;;;4999731;28;20048;-53
2022/03/03 10:00:12;;;;;;;35.97;11.10;;;;;;;;;;4999912;28;20468;-53
2022/03/03 10:02:56;;;;;;;56.38;8.80;;;;;;;;;;4997101;28;20050;-54
2022/03/03 10:05:59;;;;;;;43.90;9.25;;;;;;;;;;4998670;28;20034;-54
2022/03/03 10:08:26;;;;;;;48.83;9.65;;;;;;;;;;4981109;28;20049;-55
2022/03/03 10:10:53;;;;;;;27.25;9.60;;;;;;;;;;4996203;28;20057;-54
2022/03/03 10:13:19;;;;;;;38.03;8.98;;;;;;;;;;4999060;28;20060;-55
2022/03/03 10:15:46;;;;;;;41.45;9.55;;;;;;;;;;4998206;28;20034;-55
2022/03/03 10:18:13;;;;;;;44.20;10.02;;;;;;;;;;4997802;28;20056;-56
2022/03/03 10:20:45;;;;;;;61.50;10.80;;;;;;;;;;5028928;28;20407;-55
2022/03/03 10:23:11;;;;;;;30.73;9.18;;;;;;;;;;4996827;28;20517;-55
2022/03/03 10:25:38;;;;;;;60.63;10.18;;;;;;;;;;4999933;28;20085;-54
2022/03/03 10:28:20;;;;;;;37.08;10.30;;;;;;;;;;5003077;28;20049;-54
2022/03/03 10:30:48;;;;;;;30.88;9.30;;;;;;;;;;5002942;28;20042;-54
2022/03/03 10:33:14;;;;;;;43.25;9.57;;;;;;;;;;5004507;28;20030;-52
2022/03/03 10:35:41;;;;;;;41.47;10.75;;;;;;;;;;5003030;28;20038;-55
2022/03/03 10:38:07;;;;;;;50.03;10.52;;;;;;;;;;5006201;28;20046;-55
2022/03/03 10:40:36;;;;;;;80.47;11.52;;;;;;;;;;5000564;28;20363;-53
2022/03/03 10:43:02;;;;;;;55.58;10.68;;;;;;;;;;5004094;28;20686;-51
2022/03/03 10:45:28;;;;;;;27.67;10.05;;;;;;;;;;5002564;28;20038;-55
2022/03/03 10:48:01;;;;;;;44.90;10.75;;;;;;;;;;5001256;28;20034;-51
2022/03/03 10:50:46;;;;;;;29.58;9.75;;;;;;;;;;5002724;28;20081;-53
2022/03/03 10:53:16;;;;;;;42.80;9.45;;;;;;;;;;5006141;28;20058;-55
2022/03/03 10:55:58;;;;;;;44.42;8.60;;;;;;;;;;5003930;28;20135;-51
2022/03/03 10:58:42;;;;;;;45.90;9.82;;;;;;;;;;5000829;28;20030;-55
2022/03/03 11:01:08;;;;;;;45.78;9.90;;;;;;;;;;5032014;28;20075;-55
2022/03/03 11:03:35;;;;;;;22.35;8.77;;;;;;;;;;5001196;28;20643;-54
2022/03/03 11:06:02;;;;;;;26.25;9.00;;;;;;;;;;4999688;28;20029;-55
2022/03/03 11:08:28;;;;;;;27.08;9.35;;;;;;;;;;5000412;28;20549;-53
2022/03/03 11:10:56;;;;;;;39.70;9.70;;;;;;;;;;5004165;28;20048;-51
2022/03/03 11:13:22;;;;;;;25.35;9.63;;;;;;;;;;5003845;28;20033;-53
2022/03/03 11:15:49;;;;;;;21.90;8.18;;;;;;;;;;4999278;28;20100;-53
2022/03/03 11:18:18;;;;;;;24.85;9.02;;;;;;;;;;5001163;28;20037;-53
2022/03/03 11:20:45;;;;;;;18.60;7.93;;;;;;;;;;4997605;28;20046;-54
2022/03/03 11:23:12;;;;;;;19.52;8.35;;;;;;;;;;4999754;28;20679;-54
2022/03/03 11:25:38;;;;;;;20.15;8.02;;;;;;;;;;5000650;28;20934;-52
2022/03/03 11:28:09;;;;;;;13.88;7.55;;;;;;;;;;4998681;28;20038;-56
2022/03/03 11:30:35;;;;;;;18.17;7.60;;;;;;;;;;4999447;28;20038;-55
2022/03/03 11:33:23;;;;;;;17.23;8.20;;;;;;;;;;5016629;28;20038;-53
2022/03/03 11:35:53;;;;;;;21.15;7.85;;;;;;;;;;4998403;28;20046;-52
2022/03/03 11:38:20;;;;;;;22.42;8.70;;;;;;;;;;4998907;28;20527;-55
2022/03/03 11:41:05;;;;;;;18.60;7.85;;;;;;;;;;4999520;28;20482;-53
2022/03/03 11:43:44;;;;;;;24.40;8.05;;;;;;;;;;4998724;28;20107;-52
2022/03/03 11:46:10;;;;;;;14.35;6.93;;;;;;;;;;5000315;28;20132;-55
2022/03/03 11:48:40;;;;;;;13.43;7.00;;;;;;;;;;5000170;28;20038;-54
2022/03/03 11:51:24;;;;;;;18.52;7.68;;;;;;;;;;5001693;28;20117;-52
2022/03/03 11:53:50;;;;;;;15.60;7.40;;;;;;;;;;4999433;28;20053;-52
2022/03/03 11:56:16;;;;;;;19.98;7.80;;;;;;;;;;5001081;28;20057;-54
2022/03/03 11:58:42;;;;;;;17.38;7.25;;;;;;;;;;5001447;28;20049;-54
2022/03/03 12:01:09;;;;;;;13.20;7.13;;;;;;;;;;5000998;28;20453;-52
2022/03/03 12:03:53;;;;;;;18.55;7.90;;;;;;;;;;5009177;28;20194;-53
2022/03/03 12:06:20;;;;;;;20.25;7.93;;;;;;;;;;5003795;28;20687;-55
2022/03/03 12:08:46;;;;;;;18.65;7.40;;;;;;;;;;4997517;28;20745;-54
2022/03/03 12:11:16;;;;;;;17.95;8.68;;;;;;;;;;4997993;28;20073;-53
2022/03/03 12:13:44;;;;;;;17.13;7.47;;;;;;;;;;4999797;28;20034;-53
2022/03/03 12:16:29;;;;;;;15.48;7.70;;;;;;;;;;5001056;28;20053;-55
2022/03/03 12:18:55;;;;;;;17.20;8.07;;;;;;;;;;4999245;28;20042;-54
2022/03/03 12:21:27;;;;;;;11.05;6.55;;;;;;;;;;4998761;28;20046;-52
2022/03/03 12:24:12;;;;;;;16.52;7.78;;;;;;;;;;5001103;28;20117;-56
2022/03/03 12:26:59;;;;;;;20.25;9.27;;;;;;;;;;4999115;28;20048;-55
2022/03/03 12:29:32;;;;;;;19.45;8.38;;;;;;;;;;5030282;28;20056;-54
2022/03/03 12:31:58;;;;;;;;;;;;;;;;;;5000053;28;20069;-52
2022/03/03 12:34:25;;;;;;;16.73;7.40;;;;;;;;;;5000463;28;20391;-54
2022/03/03 12:36:54;;;;;;;14.13;6.88;;;;;;;;;;4995659;28;20049;-54
2022/03/03 12:39:20;;;;;;;22.10;7.32;;;;;;;;;;4997879;28;20042;-55
2022/03/03 12:41:46;;;;;;;16.15;8.15;;;;;;;;;;5001055;28;20060;-53
2022/03/03 12:44:13;;;;;;;20.33;8.25;;;;;;;;;;5014549;28;20058;-55
2022/03/03 12:46:40;;;;;;;27.90;9.05;;;;;;;;;;4996692;28;20517;-53
2022/03/03 12:49:07;;;;;;;36.45;9.18;;;;;;;;;;5000160;28;20111;-55
2022/03/03 12:51:34;;;;;;;21.67;7.75;;;;;;;;;;4997193;28;20495;-54
2022/03/03 12:54:04;;;;;;;18.30;6.78;;;;;;;;;;4996295;28;20408;-54
2022/03/03 12:56:30;;;;;;;20.95;7.85;;;;;;;;;;4995631;28;20029;-52
2022/03/03 12:58:58;;;;;;;16.02;7.43;;;;;;;;;;5000326;28;20108;-52
2022/03/03 13:01:25;;;;;;;15.25;7.90;;;;;;;;;;5002760;28;20044;-54
2022/03/03 13:03:51;;;;;;;20.80;8.18;;;;;;;;;;4996996;28;20050;-53
2022/03/03 13:06:18;;;;;;;30.83;8.35;;;;;;;;;;4998544;28;20060;-56
2022/03/03 13:08:44;;;;;;;16.45;7.63;;;;;;;;;;4999169;28;20041;-55
2022/03/03 13:11:16;;;;;;;12.05;7.47;;;;;;;;;;4998754;28;20050;-56
2022/03/03 13:13:48;;;;;;;20.25;7.00;;;;;;;;;;4997067;28;20069;-55
2022/03/03 13:16:18;;;;;;;16.67;7.50;;;;;;;;;;5000968;28;20074;-55
2022/03/03 13:18:44;;;;;;;15.27;7.55;;;;;;;;;;4997583;28;20129;-52
2022/03/03 13:21:11;;;;;;;17.35;8.68;;;;;;;;;;5001068;28;20037;-55
2022/03/03 13:23:44;;;;;;;22.35;9.45;;;;;;;;;;5005450;28;21625;-54
2022/03/03 13:26:12;;;;;;;24.27;11.00;;;;;;;;;;5005488;28;20041;-55
2022/03/03 13:29:01;;;;;;;13.68;7.15;;;;;;;;;;5006875;28;20049;-55
2022/03/03 13:31:28;;;;;;;27.15;7.78;;;;;;;;;;5000225;28;20142;-53
2022/03/03 13:33:55;;;;;;;17.77;7.90;;;;;;;;;;5001650;28;20085;-55
2022/03/03 13:36:22;;;;;;;20.40;8.00;;;;;;;;;;5000094;28;20127;-53
2022/03/03 13:38:50;;;;;;;17.38;7.20;;;;;;;;;;4999685;28;20041;-54
2022/03/03 13:41:24;;;;;;;15.18;6.22;;;;;;;;;;5002911;28;20090;-54
2022/03/03 13:43:50;;;;;;;14.40;6.88;;;;;;;;;;5000292;28;20051;-56
2022/03/03 13:46:29;;;;;;;15.75;6.28;;;;;;;;;;4999677;28;20068;-56
2022/03/03 13:48:55;;;;;;;11.60;6.07;;;;;;;;;;5001342;28;20034;-55
2022/03/03 13:51:21;;;;;;;27.13;7.63;;;;;;;;;;4997546;28;20042;-54
2022/03/03 13:54:00;;;;;;;14.68;6.70;;;;;;;;;;4997130;28;20066;-55
2022/03/03 13:56:31;;;;;;;15.65;6.50;;;;;;;;;;4999969;28;20045;-56
2022/03/03 13:59:23;;;;;;;15.27;5.93;;;;;;;;;;4995929;28;20073;-53
2022/03/03 14:01:49;;;;;;;12.50;5.95;;;;;;;;;;5003996;28;20497;-56
2022/03/03 14:04:21;;;;;;;11.98;5.80;;;;;;;;;;5007537;28;20153;-56
2022/03/03 14:06:47;;;;;;;12.00;5.68;;;;;;;;;;5009691;28;21151;-54
2022/03/03 14:09:25;;;;;;;11.70;6.00;;;;;;;;;;5020546;28;20057;-56
2022/03/03 14:11:51;;;;;;;15.13;6.72;;;;;;;;;;5011513;28;20045;-55
2022/03/03 14:14:18;;;;;;;13.80;6.30;;;;;;;;;;5007142;28;20038;-55
2022/03/03 14:16:44;;;;;;;15.63;5.68;;;;;;;;;;5010323;28;20439;-54
2022/03/03 14:19:11;;;;;;;14.15;6.05;;;;;;;;;;5010209;28;20034;-55
2022/03/03 14:21:39;;;;;;;18.67;6.82;;;;;;;;;;5008621;28;20061;-56
2022/03/03 14:24:08;;;;;;;12.57;5.57;;;;;;;;;;5006989;28;20057;-54
2022/03/03 14:26:35;;;;;;;20.25;7.28;;;;;;;;;;5002870;28;20432;-55